createdAt,value
2022-12-12T00:00:59.982Z,38.12
2022-12-12T00:04:09.956Z,38.72
2022-12-12T00:07:16.301Z,36.92
2022-12-12T00:10:24.656Z,37.60
2022-12-12T00:13:31.234Z,38.41
2022-12-12T00:16:36.804Z,36.95
2022-12-12T00:19:43.421Z,37.50
2022-12-12T00:22:49.303Z,38.19
2022-12-12T00:26:06.314Z,37.83
2022-12-12T00:29:12.844Z,36.53
2022-12-12T00:32:19.233Z,35.20
2022-12-12T00:35:24.823Z,33.99
2022-12-12T00:38:31.195Z,33.26
2022-12-12T00:41:40.149Z,32.55
2022-12-12T00:44:46.518Z,30.38
2022-12-12T00:47:51.999Z,30.35
2022-12-12T00:50:59.588Z,29.86
2022-12-12T00:54:07.126Z,31.46
2022-12-12T00:57:16.244Z,29.80
2022-12-12T01:00:24.399Z,29.92
2022-12-12T01:03:30.726Z,29.58
2022-12-12T01:06:37.062Z,30.77
2022-12-12T01:09:43.421Z,31.45
2022-12-12T01:12:51.411Z,29.64
2022-12-12T01:15:58.016Z,29.75
2022-12-12T01:19:04.022Z,30.42
2022-12-12T01:22:10.421Z,31.87
2022-12-12T01:25:18.372Z,37.41
2022-12-12T01:28:27.211Z,38.76
2022-12-12T01:31:32.743Z,34.90
2022-12-12T01:34:39.127Z,39.37
2022-12-12T01:37:45.692Z,33.75
2022-12-12T01:40:52.069Z,33.14
2022-12-12T01:44:04.536Z,28.36
2022-12-12T01:47:11.327Z,30.48
2022-12-12T01:50:16.927Z,27.25
2022-12-12T01:53:25.131Z,28.27
2022-12-12T01:56:31.232Z,27.03
2022-12-12T01:59:43.173Z,26.20
2022-12-12T02:02:52.616Z,25.55
2022-12-12T02:06:07.258Z,26.66
2022-12-12T02:09:18.345Z,26.40
2022-12-12T02:12:24.774Z,25.65
2022-12-12T02:15:45.083Z,25.91
2022-12-12T02:19:11.789Z,27.65
2022-12-12T02:22:44.135Z,27.44
2022-12-12T02:26:43.793Z,26.41
2022-12-12T02:30:23.648Z,26.79
2022-12-12T02:33:47.757Z,28.15
2022-12-12T02:37:10.435Z,27.10
2022-12-12T02:40:28.551Z,28.37
2022-12-12T02:43:44.867Z,29.01
2022-12-12T02:47:05.967Z,26.63
2022-12-12T02:50:22.613Z,26.49
2022-12-12T02:53:28.996Z,27.32
2022-12-12T02:56:53.847Z,27.88
2022-12-12T03:00:05.173Z,23.99
2022-12-12T03:03:50.165Z,25.74
2022-12-12T03:07:32.561Z,26.81
2022-12-12T03:10:58.205Z,26.47
2022-12-12T03:14:18.725Z,27.17
2022-12-12T03:17:36.515Z,27.76
2022-12-12T03:20:53.811Z,26.14
2022-12-12T03:24:11.726Z,27.28
2022-12-12T03:27:30.988Z,26.80
2022-12-12T03:30:49.233Z,25.79
2022-12-12T03:34:05.056Z,25.81
2022-12-12T03:37:22.720Z,26.84
2022-12-12T03:40:45.138Z,26.70
2022-12-12T03:44:04.957Z,24.95
2022-12-12T03:47:20.519Z,24.97
2022-12-12T03:50:36.156Z,23.70
2022-12-12T03:53:52.300Z,24.21
2022-12-12T03:57:09.043Z,24.96
2022-12-12T04:00:18.987Z,25.74
2022-12-12T04:03:37.126Z,24.57
2022-12-12T04:06:56.087Z,24.77
2022-12-12T04:10:14.680Z,24.42
2022-12-12T04:13:38.287Z,24.79
2022-12-12T04:16:52.489Z,25.62
2022-12-12T04:20:20.116Z,27.06
2022-12-12T04:23:44.519Z,26.78
2022-12-12T04:27:02.662Z,26.41
2022-12-12T04:30:15.258Z,25.84
2022-12-12T04:33:31.648Z,28.09
2022-12-12T04:36:40.438Z,27.23
2022-12-12T04:39:53.893Z,27.82
2022-12-12T04:43:09.217Z,27.61
2022-12-12T04:46:25.863Z,25.38
2022-12-12T04:49:38.568Z,25.79
2022-12-12T04:52:49.753Z,26.09
2022-12-12T04:56:03.264Z,25.82
2022-12-12T04:59:11.494Z,25.40
2022-12-12T05:02:33.226Z,25.15
2022-12-12T05:05:50.674Z,25.52
2022-12-12T05:09:00.728Z,25.58
2022-12-12T05:12:07.880Z,26.84
2022-12-12T05:15:14.972Z,27.30
2022-12-12T05:18:25.871Z,28.22
2022-12-12T05:21:31.543Z,28.67
2022-12-12T05:24:37.817Z,29.50
2022-12-12T05:27:43.736Z,29.98
2022-12-12T05:30:50.424Z,29.97
2022-12-12T05:33:59.398Z,28.55
2022-12-12T05:37:05.832Z,28.74
2022-12-12T05:40:15.062Z,28.96
2022-12-12T05:43:21.425Z,29.52
2022-12-12T05:46:27.037Z,31.00
2022-12-12T05:49:36.011Z,32.85
2022-12-12T05:52:43.795Z,32.78
2022-12-12T05:55:53.470Z,32.59
2022-12-12T05:58:58.967Z,34.35
2022-12-12T06:02:05.335Z,34.52
2022-12-12T06:05:16.383Z,46.68
2022-12-12T06:08:25.143Z,50.97
2022-12-12T06:11:30.883Z,59.39
2022-12-12T06:14:37.222Z,61.55
2022-12-12T06:17:42.697Z,44.04
2022-12-12T06:20:51.595Z,50.73
2022-12-12T06:23:57.216Z,51.10
2022-12-12T06:27:03.694Z,39.65
2022-12-12T06:30:17.934Z,37.74
2022-12-12T06:33:31.752Z,40.59
2022-12-12T06:36:40.807Z,41.83
2022-12-12T06:39:50.342Z,40.98
2022-12-12T06:43:09.047Z,41.92
2022-12-12T06:46:23.529Z,45.22
2022-12-12T06:49:31.009Z,44.95
2022-12-12T06:52:40.330Z,42.23
2022-12-12T06:55:48.696Z,41.67
2022-12-12T06:59:01.171Z,41.23
2022-12-12T07:02:07.243Z,55.15
2022-12-12T07:05:14.143Z,38.57
2022-12-12T07:08:24.104Z,35.83
2022-12-12T07:11:30.735Z,38.18
2022-12-12T07:14:41.426Z,39.65
2022-12-12T07:17:52.082Z,38.65
2022-12-12T07:21:00.730Z,42.85
2022-12-12T07:24:10.606Z,43.82
2022-12-12T07:27:21.517Z,41.15
2022-12-12T07:30:49.417Z,43.83
2022-12-12T07:33:55.763Z,40.06
2022-12-12T07:37:27.114Z,37.30
2022-12-12T07:44:54.062Z,39.52
2022-12-12T07:48:09.062Z,36.13
2022-12-12T07:55:30.733Z,36.97
2022-12-12T07:59:20.129Z,34.18
2022-12-12T08:02:45.525Z,39.71
2022-12-12T08:05:53.587Z,36.15
2022-12-12T08:09:12.939Z,33.79
2022-12-12T08:12:32.687Z,35.14
2022-12-12T08:15:51.044Z,34.22
2022-12-12T08:19:05.996Z,33.34
2022-12-12T08:22:16.260Z,35.76
2022-12-12T08:25:44.142Z,39.61
2022-12-12T08:29:08.174Z,43.46
2022-12-12T08:32:27.184Z,47.80
2022-12-12T08:35:37.964Z,38.63
2022-12-12T08:38:57.737Z,35.86
2022-12-12T08:42:08.504Z,38.10
2022-12-12T08:45:14.981Z,43.41
2022-12-12T08:48:30.272Z,37.23
2022-12-12T08:51:37.048Z,35.44
2022-12-12T08:54:46.057Z,31.64
2022-12-12T08:57:53.884Z,31.36
2022-12-12T09:01:04.489Z,31.35
2022-12-12T09:04:21.443Z,32.48
2022-12-12T09:07:40.933Z,33.04
2022-12-12T09:10:53.997Z,43.89
2022-12-12T09:14:02.931Z,61.56
2022-12-12T09:17:15.371Z,41.38
2022-12-12T09:20:50.843Z,35.28
2022-12-12T09:24:03.014Z,38.44
2022-12-12T09:27:26.829Z,36.52
2022-12-12T09:30:46.085Z,36.06
2022-12-12T09:34:02.851Z,42.69
2022-12-12T09:37:27.011Z,78.60
2022-12-12T09:40:52.034Z,102.35
2022-12-12T09:44:08.693Z,81.65
2022-12-12T09:47:41.508Z,39.00
2022-12-12T09:50:53.323Z,39.44
2022-12-12T09:54:25.151Z,37.38
2022-12-12T09:58:12.710Z,39.19
2022-12-12T10:01:55.360Z,45.65
2022-12-12T10:10:16.545Z,39.17
2022-12-12T10:13:39.120Z,37.18
2022-12-12T10:17:16.721Z,35.73
2022-12-12T10:21:08.773Z,39.01
2022-12-12T10:25:03.465Z,38.19
2022-12-12T10:28:46.772Z,61.22
2022-12-12T10:32:41.621Z,45.42
2022-12-12T10:36:17.736Z,65.58
2022-12-12T10:40:04.651Z,54.43
2022-12-12T10:43:44.181Z,49.43
2022-12-12T10:47:48.514Z,41.04
2022-12-12T10:51:21.709Z,36.88
2022-12-12T10:54:54.467Z,37.20
2022-12-12T10:58:41.402Z,36.26
2022-12-12T11:02:32.136Z,50.09
2022-12-12T11:10:41.534Z,40.39
2022-12-12T11:17:37.212Z,36.54
2022-12-12T11:21:20.639Z,43.21
2022-12-12T11:24:47.163Z,33.83
2022-12-12T11:28:06.624Z,36.12
2022-12-12T11:31:20.267Z,66.63
2022-12-12T11:34:37.570Z,79.63
2022-12-12T11:37:58.960Z,51.81
2022-12-12T11:41:11.381Z,40.08
2022-12-12T11:44:28.561Z,39.66
2022-12-12T11:48:09.967Z,56.05
2022-12-12T11:51:43.732Z,62.92
2022-12-12T11:54:55.013Z,48.05
2022-12-12T11:58:28.681Z,41.38
2022-12-12T12:06:03.018Z,40.61
2022-12-12T12:09:49.626Z,57.91
2022-12-12T12:13:35.980Z,46.78
2022-12-12T12:17:13.994Z,82.46
2022-12-12T12:21:31.973Z,72.14
2022-12-12T12:25:40.310Z,99.71
2022-12-12T12:29:42.175Z,76.49
2022-12-12T12:33:23.749Z,81.44
2022-12-12T12:37:06.657Z,66.63
2022-12-12T12:40:45.980Z,50.84
2022-12-12T12:44:43.331Z,43.51
2022-12-12T12:48:02.538Z,32.26
2022-12-12T12:51:50.913Z,53.70
2022-12-12T12:55:04.529Z,50.80
2022-12-12T12:58:46.915Z,42.89
2022-12-12T13:01:58.977Z,34.20
2022-12-12T13:05:21.809Z,43.59
2022-12-12T13:08:45.273Z,49.26
2022-12-12T13:12:02.850Z,51.34
2022-12-12T13:15:26.503Z,45.98
2022-12-12T13:18:45.916Z,60.19
2022-12-12T13:22:05.682Z,50.59
2022-12-12T13:25:23.066Z,52.38
2022-12-12T13:28:39.024Z,89.48
2022-12-12T13:32:24.252Z,68.11
2022-12-12T13:35:40.308Z,40.93
2022-12-12T13:38:54.435Z,45.96
2022-12-12T13:42:07.773Z,48.76
2022-12-12T13:45:48.043Z,69.23
2022-12-12T13:49:04.487Z,89.31
2022-12-12T13:52:30.527Z,62.46
2022-12-12T13:55:38.360Z,79.79
2022-12-12T13:58:43.904Z,73.93
2022-12-12T14:01:51.151Z,85.95
2022-12-12T14:05:16.835Z,90.27
2022-12-12T14:08:31.336Z,64.21
2022-12-12T14:11:40.621Z,94.43
2022-12-12T14:15:02.621Z,80.12
2022-12-12T14:18:08.498Z,78.89
2022-12-12T14:21:21.558Z,84.80
2022-12-12T14:24:56.151Z,144.90
2022-12-12T14:28:20.852Z,98.92
2022-12-12T14:31:35.331Z,73.22
2022-12-12T14:34:58.007Z,42.36
2022-12-12T14:38:33.166Z,69.06
2022-12-12T14:41:46.718Z,58.88
2022-12-12T14:44:52.441Z,52.30
2022-12-12T14:48:22.711Z,38.03
2022-12-12T14:51:38.163Z,40.65
2022-12-12T14:54:49.247Z,86.14
2022-12-12T14:57:57.445Z,47.88
2022-12-12T15:01:08.092Z,57.15
2022-12-12T15:04:22.798Z,96.48
2022-12-12T15:07:32.709Z,57.17
2022-12-12T15:10:42.455Z,51.92
2022-12-12T15:13:58.211Z,44.32
2022-12-12T15:17:10.583Z,47.11
2022-12-12T15:20:24.726Z,59.42
2022-12-12T15:23:30.438Z,98.39
2022-12-12T15:26:41.908Z,70.12
2022-12-12T15:29:47.659Z,90.73
2022-12-12T15:32:58.560Z,89.91
2022-12-12T15:36:05.382Z,75.01
2022-12-12T15:39:26.041Z,82.32
2022-12-12T15:42:35.118Z,82.22
2022-12-12T15:45:46.836Z,96.14
2022-12-12T15:48:53.356Z,54.99
2022-12-12T15:52:00.098Z,54.28
2022-12-12T15:55:08.238Z,56.64
2022-12-12T15:58:29.864Z,55.06
2022-12-12T16:01:35.755Z,53.06
2022-12-12T16:04:44.481Z,51.62
2022-12-12T16:07:50.689Z,50.17
2022-12-12T16:10:58.359Z,46.00
2022-12-12T16:14:07.498Z,52.55
2022-12-12T16:17:20.343Z,47.79
2022-12-12T16:20:30.463Z,44.41
2022-12-12T16:23:44.632Z,48.84
2022-12-12T16:26:53.422Z,46.23
2022-12-12T16:30:05.429Z,43.88
2022-12-12T16:33:17.142Z,42.21
2022-12-12T16:36:25.259Z,42.68
2022-12-12T16:39:31.874Z,60.17
2022-12-12T16:42:41.125Z,55.23
2022-12-12T16:45:51.764Z,46.50
2022-12-12T16:49:04.763Z,75.03
2022-12-12T16:52:11.485Z,64.84
2022-12-12T16:55:26.258Z,64.03
2022-12-12T16:58:32.312Z,94.92
2022-12-12T17:01:46.724Z,102.97
2022-12-12T17:04:54.024Z,101.34
2022-12-12T17:08:00.497Z,60.13
2022-12-12T17:11:09.646Z,73.28
2022-12-12T17:14:25.135Z,65.57
2022-12-12T17:17:33.919Z,54.61
2022-12-12T17:20:41.003Z,41.82
2022-12-12T17:23:48.277Z,48.22
2022-12-12T17:26:55.046Z,56.39
2022-12-12T17:30:00.946Z,49.38
2022-12-12T17:33:17.889Z,58.32
2022-12-12T17:36:25.289Z,53.53
2022-12-12T17:39:32.441Z,76.91
2022-12-12T17:42:38.797Z,91.59
2022-12-12T17:45:45.253Z,82.95
2022-12-12T17:48:53.830Z,121.71
2022-12-12T17:52:03.036Z,159.65
2022-12-12T17:55:53.308Z,200.74
2022-12-12T17:58:43.726Z,233.35
2022-12-12T18:01:54.012Z,112.26
2022-12-12T18:05:04.653Z,68.25
2022-12-12T18:08:13.106Z,48.69
2022-12-12T18:11:24.639Z,42.50
2022-12-12T18:14:31.075Z,211.45
2022-12-12T18:17:41.153Z,201.11
2022-12-12T18:20:54.000Z,179.56
2022-12-12T18:24:03.214Z,118.23
2022-12-12T18:27:08.710Z,75.48
2022-12-12T18:30:19.881Z,47.93
2022-12-12T18:33:25.747Z,37.26
2022-12-12T18:36:36.884Z,44.65
2022-12-12T18:39:44.413Z,36.44
2022-12-12T18:42:55.056Z,34.14
2022-12-12T18:46:06.193Z,43.54
2022-12-12T18:49:15.388Z,34.33
2022-12-12T18:52:23.934Z,96.35
2022-12-12T18:55:30.960Z,138.31
2022-12-12T18:58:36.695Z,77.38
2022-12-12T19:01:44.830Z,68.81
2022-12-12T19:04:51.398Z,48.12
2022-12-12T19:08:00.531Z,51.14
2022-12-12T19:11:06.725Z,52.54
2022-12-12T19:14:21.305Z,37.46
2022-12-12T19:17:28.488Z,37.71
2022-12-12T19:20:34.807Z,37.00
2022-12-12T19:23:44.042Z,32.39
2022-12-12T19:26:50.750Z,30.58
2022-12-12T19:29:58.131Z,40.70
2022-12-12T19:33:04.556Z,37.91
2022-12-12T19:36:16.511Z,37.82
2022-12-12T19:39:25.431Z,30.33
2022-12-12T19:42:31.741Z,38.69
2022-12-12T19:45:38.148Z,31.33
2022-12-12T19:48:44.632Z,42.28
2022-12-12T19:51:51.910Z,28.90
2022-12-12T19:55:00.089Z,25.10
2022-12-12T19:58:08.038Z,24.05
2022-12-12T20:01:18.262Z,26.84
2022-12-12T20:04:30.363Z,23.11
2022-12-12T20:07:36.375Z,20.27
2022-12-12T20:10:46.324Z,21.13
2022-12-12T20:13:54.362Z,18.93
2022-12-12T20:17:03.040Z,19.99
2022-12-12T20:20:11.176Z,18.99
2022-12-12T20:23:17.521Z,18.53
2022-12-12T20:26:29.116Z,22.33
2022-12-12T20:29:36.194Z,18.70
2022-12-12T20:32:41.763Z,20.44
2022-12-12T20:35:48.080Z,20.83
2022-12-12T20:38:54.523Z,20.87
2022-12-12T20:42:03.546Z,19.63
2022-12-12T20:45:11.099Z,30.10
2022-12-12T20:48:17.474Z,35.20
2022-12-12T20:51:53.364Z,31.74
2022-12-12T20:54:50.018Z,26.03
2022-12-12T20:57:58.310Z,18.96
2022-12-12T21:01:12.049Z,21.70
2022-12-12T21:04:18.122Z,19.66
2022-12-12T21:07:24.707Z,16.95
2022-12-12T21:10:30.401Z,16.52
2022-12-12T21:13:40.029Z,17.63
2022-12-12T21:16:45.521Z,17.52
2022-12-12T21:19:51.858Z,25.51
2022-12-12T21:22:57.546Z,23.11
2022-12-12T21:26:06.806Z,26.65
2022-12-12T21:29:15.652Z,20.82
2022-12-12T21:32:21.970Z,21.04
2022-12-12T21:35:27.435Z,32.42
2022-12-12T21:38:33.733Z,21.12
2022-12-12T21:41:41.725Z,23.03
2022-12-12T21:44:50.731Z,21.14
2022-12-12T21:47:56.279Z,20.94
2022-12-12T21:51:03.799Z,25.36
2022-12-12T21:54:12.331Z,18.70
2022-12-12T21:57:24.660Z,17.84
2022-12-12T22:00:33.166Z,17.13
2022-12-12T22:03:39.983Z,18.35
2022-12-12T22:06:48.984Z,18.30
2022-12-12T22:09:57.112Z,15.98
2022-12-12T22:13:16.695Z,16.64
2022-12-12T22:16:25.786Z,15.42
2022-12-12T22:19:31.663Z,15.15
2022-12-12T22:22:38.020Z,15.47
2022-12-12T22:25:44.091Z,15.19
2022-12-12T22:28:52.529Z,13.71
2022-12-12T22:32:00.647Z,14.27
2022-12-12T22:35:08.161Z,15.15
2022-12-12T22:38:13.779Z,14.18
2022-12-12T22:41:20.277Z,14.04
2022-12-12T22:44:28.237Z,14.87
2022-12-12T22:47:37.452Z,14.83
2022-12-12T22:50:43.407Z,14.49
2022-12-12T22:53:50.844Z,15.92
2022-12-12T22:56:57.437Z,15.76
2022-12-12T23:00:03.772Z,18.85
2022-12-12T23:03:11.908Z,21.51
2022-12-12T23:06:22.673Z,21.00
2022-12-12T23:09:28.808Z,27.18
2022-12-12T23:12:35.335Z,28.53
2022-12-12T23:15:43.888Z,26.44
2022-12-12T23:18:53.277Z,26.92
2022-12-12T23:21:59.217Z,25.99
2022-12-12T23:25:05.753Z,22.61
2022-12-12T23:28:14.037Z,21.27
2022-12-12T23:31:25.024Z,21.69
2022-12-12T23:34:34.179Z,22.79
2022-12-12T23:37:40.499Z,20.58
2022-12-12T23:40:45.976Z,21.67
2022-12-12T23:43:53.843Z,22.41
2022-12-12T23:47:01.257Z,23.51
2022-12-12T23:50:11.305Z,21.85
2022-12-12T23:53:16.845Z,21.48
2022-12-12T23:56:23.362Z,21.49
2022-12-12T23:59:30.746Z,21.28
